Time;durP1;ratioP1;P1;durP2;ratioP2;P2;SDS_P1;SDS_P2;PMS_P1;PMS_P2;Temp;Humidity;BMP_temperature;BMP_pressure;BME280_temperature;BME280_humidity;BME280_pressure;Samples;Min_cycle;Max_cycle;Signal;HPM_P1;HPM_P2
2022/05/07 00:02:06;;;;;;;25.67;18.05;;;;;;;12.48;100.00;99159.72;5038818;28;20068;-60
2022/05/07 00:04:33;;;;;;;27.63;17.83;;;;;;;12.49;100.00;99152.00;5042749;28;20025;-60
2022/05/07 00:06:59;;;;;;;23.00;17.83;;;;;;;12.48;100.00;99158.00;5043717;28;20029;-61
2022/05/07 00:09:24;;;;;;;26.42;18.27;;;;;;;12.47;100.00;99153.78;5039719;28;20032;-60
2022/05/07 00:11:50;;;;;;;20.45;16.35;;;;;;;12.40;100.00;99152.16;5039831;28;20044;-60
2022/05/07 00:14:16;;;;;;;22.85;17.17;;;;;;;12.38;100.00;99156.50;5042403;28;20100;-60
2022/05/07 00:19:25;;;;;;;22.83;18.58;;;;;;;12.39;100.00;99165.88;5038921;28;20047;-60
2022/05/07 00:21:51;;;;;;;22.88;15.85;;;;;;;12.40;100.00;99170.16;5040433;28;20056;-61
2022/05/07 00:24:17;;;;;;;19.33;15.05;;;;;;;12.42;100.00;99163.28;5041077;28;20063;-61
2022/05/07 00:26:43;;;;;;;24.08;16.27;;;;;;;12.46;100.00;99164.94;5039103;28;20029;-61
2022/05/07 00:29:08;;;;;;;22.27;15.05;;;;;;;12.45;100.00;99165.78;5038003;28;20366;-61
2022/05/07 00:31:34;;;;;;;18.45;15.55;;;;;;;12.38;100.00;99158.22;5039774;28;20040;-60
2022/05/07 00:33:59;;;;;;;20.38;15.85;;;;;;;12.38;100.00;99164.22;5042490;28;20033;-60
2022/05/07 00:36:25;;;;;;;20.38;15.20;;;;;;;12.36;100.00;99161.66;5041106;28;20016;-60
2022/05/07 00:38:50;;;;;;;19.85;16.23;;;;;;;12.38;100.00;99166.78;5038465;28;20039;-61
2022/05/07 00:41:15;;;;;;;20.08;14.73;;;;;;;12.36;100.00;99159.09;5040202;28;20036;-61
2022/05/07 00:43:41;;;;;;;22.02;15.98;;;;;;;12.35;100.00;99159.09;5042125;28;20401;-60
2022/05/07 00:46:08;;;;;;;22.73;16.40;;;;;;;12.42;100.00;99152.16;5039094;28;20037;-60
2022/05/07 00:48:34;;;;;;;22.58;16.50;;;;;;;12.42;100.00;99162.44;5038494;28;20570;-60
2022/05/07 00:53:45;;;;;;;20.83;16.02;;;;;;;12.29;100.00;99162.66;5042599;28;20108;-60
2022/05/07 00:56:11;;;;;;;26.45;19.27;;;;;;;12.37;100.00;99159.94;5038910;28;20036;-60
2022/05/07 00:58:38;;;;;;;23.38;17.42;;;;;;;12.36;100.00;99163.38;5038075;28;20433;-60
2022/05/07 01:01:04;;;;;;;26.50;18.70;;;;;;;12.39;100.00;99155.59;5042312;28;20070;-61
2022/05/07 01:03:30;;;;;;;24.67;18.80;;;;;;;12.33;100.00;99155.72;5042272;28;20025;-60
2022/05/07 01:05:55;;;;;;;24.55;18.42;;;;;;;12.29;100.00;99154.94;5038958;28;20306;-60
2022/05/07 01:08:21;;;;;;;24.55;18.17;;;;;;;12.26;100.00;99141.31;5037674;28;20037;-60
2022/05/07 01:10:47;;;;;;;26.30;18.85;;;;;;;12.27;100.00;99146.38;5037892;28;20044;-61
2022/05/07 01:13:13;;;;;;;26.58;20.00;;;;;;;12.25;100.00;99144.75;5037691;28;20556;-60
2022/05/07 01:15:53;;;;;;;23.00;17.55;;;;;;;12.27;100.00;99138.69;5037681;28;20143;-61
2022/05/07 01:18:18;;;;;;;24.38;18.15;;;;;;;12.27;100.00;99141.25;5040223;28;20033;-60
2022/05/07 01:20:44;;;;;;;27.48;19.65;;;;;;;12.26;100.00;99141.31;5041445;28;20044;-61
2022/05/07 01:23:09;;;;;;;25.95;17.42;;;;;;;12.18;100.00;99132.84;5039599;28;20563;-61
2022/05/07 01:25:35;;;;;;;26.33;18.67;;;;;;;12.22;100.00;99134.53;5038633;28;20024;-60
2022/05/07 01:28:01;;;;;;;28.08;19.70;;;;;;;12.19;100.00;99127.69;5038396;28;20048;-61
2022/05/07 01:30:26;;;;;;;25.40;18.75;;;;;;;12.23;100.00;99128.47;5039517;28;20135;-60
2022/05/07 01:32:52;;;;;;;24.63;17.40;;;;;;;12.22;100.00;99134.53;5040257;28;20033;-61
2022/05/07 01:35:18;;;;;;;26.45;20.17;;;;;;;12.10;100.00;99135.56;5037853;28;20530;-60
2022/05/07 01:37:43;;;;;;;23.17;17.73;;;;;;;12.12;100.00;99133.81;5039870;28;20021;-61
2022/05/07 01:40:11;;;;;;;23.02;17.05;;;;;;;12.08;100.00;99139.03;5037143;28;20414;-61
2022/05/07 01:42:36;;;;;;;24.77;17.80;;;;;;;12.08;100.00;99144.19;5040801;28;20051;-61
2022/05/07 01:45:03;;;;;;;25.10;17.52;;;;;;;12.03;100.00;99141.69;5041438;28;20479;-61
2022/05/07 01:50:12;;;;;;;20.42;15.23;;;;;;;12.03;100.00;99149.38;5042274;28;20036;-60
2022/05/07 01:52:38;;;;;;;26.02;17.90;;;;;;;12.05;100.00;99146.81;5041976;28;20032;-60
2022/05/07 01:55:04;;;;;;;23.38;17.05;;;;;;;12.07;100.00;99150.19;5042218;28;20096;-60
2022/05/07 01:57:29;;;;;;;26.10;18.08;;;;;;;12.07;100.00;99142.47;5045751;28;20028;-61
2022/05/07 01:59:55;;;;;;;28.10;17.27;;;;;;;12.09;100.00;99145.88;5041993;28;20047;-61
2022/05/07 02:02:20;;;;;;;27.95;18.60;;;;;;;12.07;100.00;99150.19;5041010;28;20021;-60
2022/05/07 02:04:46;;;;;;;25.85;17.85;;;;;;;12.05;100.00;99145.06;5041192;28;20399;-61
2022/05/07 02:07:11;;;;;;;24.85;17.67;;;;;;;12.09;100.00;99151.03;5045670;28;20369;-61
2022/05/07 02:09:37;;;;;;;24.00;17.50;;;;;;;12.13;100.00;99144.94;5043533;28;20089;-61
2022/05/07 02:12:03;;;;;;;24.75;17.83;;;;;;;12.18;100.00;99154.25;5040977;28;20029;-61
2022/05/07 02:14:29;;;;;;;24.60;17.65;;;;;;;12.21;100.00;99158.53;5042823;28;20139;-60
2022/05/07 02:16:55;;;;;;;25.05;17.85;;;;;;;12.24;100.00;99154.16;5043116;28;20049;-60
2022/05/07 02:19:21;;;;;;;24.23;17.67;;;;;;;12.24;100.00;99148.19;5041482;28;20037;-60
2022/05/07 02:21:46;;;;;;;24.98;18.15;;;;;;;12.24;100.00;99154.16;5041360;28;20032;-60
2022/05/07 02:24:12;;;;;;;23.85;16.20;;;;;;;12.26;100.00;99161.88;5042916;28;20147;-60
2022/05/07 02:26:37;;;;;;;25.15;17.80;;;;;;;12.26;100.00;99151.59;5045090;28;20491;-60
2022/05/07 02:29:02;;;;;;;27.58;18.75;;;;;;;12.30;100.00;99156.66;5042134;28;20033;-60
2022/05/07 02:31:28;;;;;;;23.25;18.15;;;;;;;12.28;100.00;99163.53;5041185;28;20171;-60
2022/05/07 02:33:53;;;;;;;23.25;16.38;;;;;;;12.29;100.00;99162.66;5043095;28;20443;-61
2022/05/07 02:36:19;;;;;;;22.33;16.15;;;;;;;12.24;100.00;99161.03;5044044;28;20207;-61
2022/05/07 02:38:44;;;;;;;22.58;17.30;;;;;;;12.21;100.00;99166.22;5040971;28;20495;-61
2022/05/07 02:43:54;;;;;;;21.67;16.15;;;;;;;12.20;100.00;99159.38;5044644;28;20068;-61
2022/05/07 02:46:19;;;;;;;22.10;16.73;;;;;;;12.22;100.00;99155.09;5044420;28;20152;-61
2022/05/07 02:48:45;;;;;;;21.95;16.15;;;;;;;12.23;100.00;99157.59;5040371;28;20033;-61
2022/05/07 02:51:14;;;;;;;23.10;16.35;;;;;;;12.19;100.00;99145.69;5041750;28;20470;-61
2022/05/07 02:53:39;;;;;;;22.02;15.15;;;;;;;12.20;100.00;99151.66;5042940;28;20025;-61
2022/05/07 02:56:05;;;;;;;23.38;16.75;;;;;;;12.21;100.00;99151.66;5043833;28;20033;-60
2022/05/07 02:58:31;;;;;;;23.17;17.30;;;;;;;12.22;100.00;99152.50;5040771;28;20116;-60
2022/05/07 03:00:57;;;;;;;19.60;15.80;;;;;;;12.27;100.00;99141.25;5040423;28;20087;-60
2022/05/07 03:03:22;;;;;;;18.42;14.77;;;;;;;12.32;100.00;99139.44;5039927;28;20059;-60
2022/05/07 03:05:48;;;;;;;17.55;13.93;;;;;;;12.23;100.00;99131.03;5042717;28;20037;-61
2022/05/07 03:08:13;;;;;;;16.05;13.48;;;;;;;12.18;100.00;99130.28;5040172;28;20037;-59
2022/05/07 03:10:39;;;;;;;18.52;15.32;;;;;;;12.16;100.00;99134.59;5041544;28;20040;-60
2022/05/07 03:13:04;;;;;;;20.27;13.57;;;;;;;12.11;100.00;99137.25;5043988;28;20036;-61
2022/05/07 03:15:30;;;;;;;18.85;14.77;;;;;;;12.15;100.00;99138.03;5042174;28;20497;-60
2022/05/07 03:17:56;;;;;;;17.92;14.18;;;;;;;12.11;100.00;99131.25;5040581;28;20387;-60
2022/05/07 03:20:22;;;;;;;19.23;14.80;;;;;;;12.17;100.00;99134.59;5041607;28;20432;-61
2022/05/07 03:22:47;;;;;;;17.65;13.70;;;;;;;12.15;100.00;99135.47;5039726;28;20029;-60
2022/05/07 03:25:13;;;;;;;18.52;13.93;;;;;;;12.10;100.00;99138.13;5039957;28;20471;-61
2022/05/07 03:27:38;;;;;;;18.98;13.98;;;;;;;12.14;100.00;99144.91;5039362;28;20048;-60
2022/05/07 03:30:06;;;;;;;18.55;14.15;;;;;;;12.08;100.00;99139.88;5042299;28;20447;-60
2022/05/07 03:32:32;;;;;;;17.77;13.45;;;;;;;12.03;100.00;99139.09;5042936;28;20033;-60
2022/05/07 03:34:58;;;;;;;18.48;13.18;;;;;;;12.09;100.00;99148.44;5041767;28;20608;-60
2022/05/07 03:37:24;;;;;;;15.85;12.27;;;;;;;12.11;100.00;99144.97;5038853;28;20166;-60
2022/05/07 03:39:50;;;;;;;14.02;11.57;;;;;;;12.10;100.00;99142.41;5039084;28;20033;-61
2022/05/07 03:42:16;;;;;;;15.57;12.23;;;;;;;12.05;100.00;99136.53;5015958;28;20037;-61
2022/05/07 03:44:42;;;;;;;14.35;12.73;;;;;;;12.05;100.00;99141.66;5040084;28;20053;-61
2022/05/07 03:47:07;;;;;;;17.33;12.73;;;;;;;12.07;100.00;99152.75;5039434;28;20036;-61
2022/05/07 03:49:33;;;;;;;15.18;12.75;;;;;;;12.10;100.00;99153.53;5038689;28;20075;-61
2022/05/07 03:54:43;;;;;;;15.93;12.63;;;;;;;12.15;100.00;99161.19;5039418;28;20044;-61
2022/05/07 03:57:09;;;;;;;14.65;12.35;;;;;;;12.16;100.00;99157.75;5039950;28;20029;-60
2022/05/07 03:59:35;;;;;;;12.60;11.27;;;;;;;12.16;100.00;99160.31;5042574;28;20037;-61
2022/05/07 04:02:00;;;;;;;15.20;12.38;;;;;;;12.12;100.00;99145.81;5042558;28;20061;-61
2022/05/07 04:04:25;;;;;;;14.23;11.73;;;;;;;12.14;100.00;99157.75;5039193;28;20434;-60
2022/05/07 04:06:51;;;;;;;13.90;11.20;;;;;;;12.18;100.00;99163.69;5040546;28;20522;-61
2022/05/07 04:09:16;;;;;;;13.20;11.80;;;;;;;12.14;100.00;99160.31;5041580;28;20033;-61
2022/05/07 04:11:41;;;;;;;15.05;12.65;;;;;;;12.17;100.00;99151.75;5041006;28;20494;-59
2022/05/07 04:14:07;;;;;;;16.52;12.73;;;;;;;12.21;100.00;99145.66;5039455;28;20036;-60
2022/05/07 04:16:32;;;;;;;16.10;12.65;;;;;;;12.22;100.00;99140.47;5041148;28;20401;-61
2022/05/07 04:18:58;;;;;;;15.23;12.18;;;;;;;12.27;100.00;99146.38;5042597;28;20031;-59
2022/05/07 04:21:23;;;;;;;14.20;12.27;;;;;;;12.26;100.00;99143.88;5041020;28;20048;-61
2022/05/07 04:23:49;;;;;;;13.80;11.43;;;;;;;12.25;100.00;99137.88;5039098;28;20032;-61
2022/05/07 04:26:14;;;;;;;15.63;12.13;;;;;;;12.29;100.00;99134.38;5041382;28;20029;-60
2022/05/07 04:28:40;;;;;;;13.27;11.48;;;;;;;12.27;100.00;99143.81;5042977;28;20393;-61
2022/05/07 04:31:05;;;;;;;15.48;12.45;;;;;;;12.22;100.00;99140.47;5023415;28;20379;-61
2022/05/07 04:33:31;;;;;;;15.38;12.73;;;;;;;12.29;100.00;99144.66;5038643;28;20894;-61
2022/05/07 04:35:56;;;;;;;15.40;11.90;;;;;;;12.32;100.00;99141.16;5041416;28;20379;-61
2022/05/07 04:38:22;;;;;;;16.75;12.85;;;;;;;12.36;100.00;99142.81;5042293;28;20040;-61
2022/05/07 04:40:47;;;;;;;15.77;12.85;;;;;;;12.31;100.00;99147.19;5038622;28;20479;-60
2022/05/07 04:43:12;;;;;;;17.23;13.30;;;;;;;12.38;100.00;99153.94;5038283;28;20037;-61
2022/05/07 04:45:38;;;;;;;14.68;12.70;;;;;;;12.40;100.00;99146.16;5042322;28;20458;-61
2022/05/07 04:48:03;;;;;;;19.58;12.93;;;;;;;12.39;100.00;99149.63;5042307;28;20597;-61
2022/05/07 04:50:29;;;;;;;15.05;12.43;;;;;;;12.39;100.00;99150.47;5038195;28;20491;-61
2022/05/07 04:52:54;;;;;;;15.35;13.57;;;;;;;12.50;100.00;99151.13;5039147;28;20213;-61
2022/05/07 04:55:19;;;;;;;24.20;15.95;;;;;;;12.46;100.00;99149.50;5042339;28;20092;-62
2022/05/07 04:57:45;;;;;;;18.92;15.05;;;;;;;12.49;100.00;99153.72;5041552;28;20594;-62
2022/05/07 05:00:12;;;;;;;18.80;14.68;;;;;;;12.53;100.00;99143.34;5038574;28;20406;-62
2022/05/07 05:02:37;;;;;;;22.27;16.48;;;;;;;12.56;100.00;99151.00;5039118;28;20144;-62
2022/05/07 05:05:03;;;;;;;19.52;15.93;;;;;;;12.56;100.00;99147.63;5042515;28;20140;-61
2022/05/07 05:07:28;;;;;;;19.00;14.50;;;;;;;12.52;100.00;99148.53;5040891;28;20533;-61
2022/05/07 05:09:53;;;;;;;21.38;15.15;;;;;;;12.56;100.00;99145.84;5038508;28;20025;-61
2022/05/07 05:12:19;;;;;;;18.98;14.93;;;;;;;12.64;100.00;99144.03;5038808;28;20090;-61
2022/05/07 05:15:04;;;;;;;16.60;13.27;;;;;;;12.67;100.00;99145.66;5041568;28;20119;-62
2022/05/07 05:17:33;;;;;;;20.05;14.07;;;;;;;12.70;100.00;99150.75;5044282;28;20045;-60
2022/05/07 05:20:00;;;;;;;19.70;14.50;;;;;;;12.73;100.00;99154.09;5041685;28;20586;-61
2022/05/07 05:22:26;;;;;;;21.60;14.95;;;;;;;12.80;100.00;99149.72;5043621;28;20106;-60
2022/05/07 05:24:51;;;;;;;17.58;15.13;;;;;;;12.82;100.00;99147.94;5045911;28;20475;-61
2022/05/07 05:27:17;;;;;;;22.52;16.13;;;;;;;12.94;100.00;99157.16;5043304;28;20024;-61
2022/05/07 05:29:42;;;;;;;20.17;16.55;;;;;;;12.96;100.00;99163.09;5042598;28;20032;-61
2022/05/07 05:32:08;;;;;;;22.88;18.20;;;;;;;13.06;100.00;99165.47;5044613;28;20029;-62
2022/05/07 05:34:34;;;;;;;28.90;19.63;;;;;;;13.17;100.00;99166.13;5046062;28;20093;-61
2022/05/07 05:36:59;;;;;;;26.98;21.13;;;;;;;13.22;100.00;99168.59;5042630;28;20037;-61
2022/05/07 05:39:25;;;;;;;26.85;18.50;;;;;;;13.29;100.00;99167.59;5042286;28;20052;-62
2022/05/07 05:41:50;;;;;;;28.02;19.20;;;;;;;13.35;100.00;99174.34;5027999;28;20475;-62
2022/05/07 05:44:16;;;;;;;23.40;17.65;;;;;;;13.35;100.00;99180.34;5045469;28;20029;-63
2022/05/07 05:46:43;;;;;;;24.35;18.90;;;;;;;13.34;100.00;99177.78;5042329;28;20814;-62
2022/05/07 05:49:08;;;;;;;23.08;17.48;;;;;;;13.31;100.00;99183.88;5042384;28;20132;-62
2022/05/07 05:51:34;;;;;;;22.27;17.80;;;;;;;13.33;100.00;99184.66;5041565;28;20024;-62
2022/05/07 05:53:59;;;;;;;22.15;17.35;;;;;;;13.41;100.00;99182.78;5041012;28;20517;-62
2022/05/07 05:56:25;;;;;;;23.30;17.15;;;;;;;13.43;100.00;99191.34;5041767;28;20399;-62
2022/05/07 05:58:50;;;;;;;23.80;18.80;;;;;;;13.47;100.00;99189.53;5043100;28;20076;-61
2022/05/07 06:01:16;;;;;;;23.58;18.65;;;;;;;13.45;100.00;99197.28;5045334;28;20032;-62
2022/05/07 06:03:41;;;;;;;23.85;18.58;;;;;;;13.41;100.00;99195.66;5044445;28;20044;-61
2022/05/07 06:06:07;;;;;;;22.77;17.38;;;;;;;13.34;100.00;99199.25;5041634;28;20025;-61
2022/05/07 06:08:32;;;;;;;23.83;17.90;;;;;;;13.36;100.00;99194.06;5041449;28;20043;-62
2022/05/07 06:10:57;;;;;;;23.60;19.23;;;;;;;13.37;100.00;99196.59;5045232;28;20536;-62
2022/05/07 06:13:24;;;;;;;26.45;18.73;;;;;;;13.43;100.00;99193.06;5044160;28;20067;-62
2022/05/07 06:15:53;;;;;;;22.42;18.48;;;;;;;13.44;100.00;99190.47;5041388;28;20053;-62
2022/05/07 06:18:22;;;;;;;27.75;21.45;;;;;;;13.34;100.00;99200.97;5041359;28;20037;-62
2022/05/07 06:20:51;;;;;;;29.33;20.30;;;;;;;13.39;100.00;99192.28;5042298;28;20037;-62
2022/05/07 06:23:16;;;;;;;28.52;21.08;;;;;;;13.41;100.00;99193.06;5043782;28;20055;-61
2022/05/07 06:28:26;;;;;;;36.45;25.50;;;;;;;13.44;100.00;99187.03;5040823;28;20075;-62
2022/05/07 06:30:52;;;;;;;37.42;25.15;;;;;;;13.51;100.00;99191.16;5040609;28;20487;-62
2022/05/07 06:33:18;;;;;;;32.65;23.30;;;;;;;13.60;100.00;99190.97;5040202;28;20226;-62
2022/05/07 06:35:44;;;;;;;35.53;26.35;;;;;;;13.60;100.00;99184.09;5040728;28;20033;-62
2022/05/07 06:38:10;;;;;;;38.35;25.67;;;;;;;13.52;100.00;99175.69;5041290;28;20037;-62
2022/05/07 06:40:40;;;;;;;38.65;26.55;;;;;;;13.45;100.00;99168.94;5039813;28;20392;-62
2022/05/07 06:43:06;;;;;;;37.95;26.60;;;;;;;13.42;100.00;99169.03;5040195;28;20017;-62
2022/05/07 06:45:32;;;;;;;37.35;26.20;;;;;;;13.33;100.00;99158.91;5039803;28;20071;-62
2022/05/07 06:47:58;;;;;;;36.63;26.40;;;;;;;13.31;100.00;99162.41;5043281;28;20496;-62
2022/05/07 06:50:24;;;;;;;41.80;26.50;;;;;;;13.28;100.00;99168.50;5038564;28;20029;-61
2022/05/07 06:52:49;;;;;;;35.05;23.50;;;;;;;13.05;100.00;99163.78;5039989;28;20044;-64
2022/05/07 06:55:16;;;;;;;29.42;21.63;;;;;;;13.06;100.00;99173.19;5039754;28;20048;-63
2022/05/07 06:57:43;;;;;;;33.47;22.17;;;;;;;13.02;100.00;99160.44;5041551;28;20139;-63
2022/05/07 07:00:10;;;;;;;33.75;23.60;;;;;;;13.02;100.00;99171.56;5038833;28;20099;-62
2022/05/07 07:02:36;;;;;;;30.38;22.40;;;;;;;13.14;100.00;99167.94;5040062;28;20121;-62
2022/05/07 07:05:03;;;;;;;32.08;23.08;;;;;;;13.24;100.00;99171.97;5041639;28;20021;-64
2022/05/07 07:07:29;;;;;;;35.08;25.00;;;;;;;13.18;100.00;99172.13;5043879;28;20067;-62
2022/05/07 07:09:54;;;;;;;30.40;22.13;;;;;;;13.22;100.00;99173.75;5041056;28;20043;-62
2022/05/07 07:12:20;;;;;;;30.42;23.02;;;;;;;13.34;100.00;99172.66;5038727;28;20489;-62
2022/05/07 07:14:47;;;;;;;36.88;26.10;;;;;;;13.36;100.00;99168.31;5040571;28;20036;-61
2022/05/07 07:17:13;;;;;;;35.65;26.90;;;;;;;13.62;100.00;99174.56;5038378;28;20052;-62
2022/05/07 07:19:41;;;;;;;27.52;21.40;;;;;;;13.49;100.00;99165.44;5039317;28;20052;-62
2022/05/07 07:22:07;;;;;;;27.75;22.65;;;;;;;13.71;100.00;99174.38;5039160;28;20471;-63
2022/05/07 07:24:32;;;;;;;31.35;23.98;;;;;;;13.81;100.00;99159.56;5039885;28;20195;-62
2022/05/07 07:26:58;;;;;;;29.35;21.23;;;;;;;14.01;100.00;99164.22;5043136;28;21076;-62
2022/05/07 07:29:23;;;;;;;32.40;24.98;;;;;;;14.19;100.00;99156.03;5041073;28;20033;-61
2022/05/07 07:31:50;;;;;;;25.52;21.40;;;;;;;14.31;100.00;99153.16;5040164;28;20032;-62
2022/05/07 07:34:15;;;;;;;24.48;19.80;;;;;;;14.43;100.00;99147.69;5039843;28;20035;-62
2022/05/07 07:36:44;;;;;;;26.55;21.10;;;;;;;14.54;100.00;99148.28;5040202;28;20029;-62
2022/05/07 07:39:10;;;;;;;26.00;18.60;;;;;;;14.66;100.00;99154.84;5037720;28;20052;-63
2022/05/07 07:41:36;;;;;;;24.10;18.95;;;;;;;14.76;100.00;99150.28;5041667;28;20025;-62
2022/05/07 07:44:01;;;;;;;27.48;21.27;;;;;;;15.01;100.00;99161.63;5038276;28;20028;-63
2022/05/07 07:49:11;;;;;;;24.92;18.73;;;;;;;15.41;100.00;99166.44;5038800;28;20035;-63
2022/05/07 07:51:37;;;;;;;22.25;17.23;;;;;;;15.69;100.00;99158.75;5041429;28;20033;-63
2022/05/07 07:54:04;;;;;;;20.70;17.60;;;;;;;15.95;100.00;99166.53;5037154;28;20278;-62
2022/05/07 07:56:29;;;;;;;17.15;15.23;;;;;;;16.05;100.00;99172.22;5017998;28;20494;-63
2022/05/07 07:58:55;;;;;;;20.13;15.80;;;;;;;16.09;100.00;99173.81;5041169;28;20330;-63
2022/05/07 08:01:20;;;;;;;18.92;15.05;;;;;;;16.45;100.00;99168.28;5041301;28;20035;-63
2022/05/07 08:03:46;;;;;;;15.82;14.02;;;;;;;16.66;100.00;99177.09;5038823;28;20029;-62
2022/05/07 08:06:11;;;;;;;17.90;14.57;;;;;;;16.90;100.00;99163.28;5038469;28;20296;-64
2022/05/07 08:14:04;;;;;;;16.17;13.38;;;;;;;17.50;100.00;99171.41;5037458;28;20028;-62
2022/05/07 08:16:30;;;;;;;15.02;13.52;;;;;;;17.65;100.00;99176.06;5037288;28;20053;-65
2022/05/07 08:18:56;;;;;;;12.90;11.02;;;;;;;17.59;100.00;99179.72;5039389;28;20032;-63
2022/05/07 08:21:21;;;;;;;14.55;12.05;;;;;;;17.53;100.00;99182.50;5038945;28;20063;-63
2022/05/07 08:23:47;;;;;;;13.15;11.82;;;;;;;17.29;100.00;99178.25;5039260;28;20021;-64
2022/05/07 08:26:12;;;;;;;13.07;11.07;;;;;;;17.39;100.00;99178.75;5042525;28;20028;-65
2022/05/07 08:28:39;;;;;;;14.55;13.07;;;;;;;16.98;100.00;99182.88;5042402;28;20600;-64
2022/05/07 08:31:05;;;;;;;12.68;11.38;;;;;;;16.72;100.00;99181.22;5038388;28;20075;-64
2022/05/07 08:33:34;;;;;;;13.57;11.98;;;;;;;16.42;100.00;99191.66;5021133;28;20068;-65
2022/05/07 08:36:00;;;;;;;14.75;12.70;;;;;;;16.41;100.00;99192.59;5039183;28;20584;-62
2022/05/07 08:38:26;;;;;;;17.00;15.20;;;;;;;16.12;100.00;99194.44;5041447;28;20620;-65
2022/05/07 08:40:52;;;;;;;17.77;15.23;;;;;;;16.06;100.00;99197.22;5038491;28;20046;-62
2022/05/07 08:43:18;;;;;;;16.45;14.18;;;;;;;16.11;100.00;99203.94;5040062;28;20029;-65
2022/05/07 08:45:44;;;;;;;21.30;16.33;;;;;;;16.01;100.00;99202.53;5041170;28;20099;-64
2022/05/07 08:48:10;;;;;;;21.77;18.70;;;;;;;16.14;100.00;99202.97;5041078;28;20586;-64
2022/05/07 08:50:38;;;;;;;18.63;16.23;;;;;;;16.12;100.00;99205.63;5019908;28;20449;-64
2022/05/07 08:53:04;;;;;;;20.35;17.60;;;;;;;16.04;100.00;99207.59;5001828;28;20049;-64
2022/05/07 08:55:30;;;;;;;21.38;16.50;;;;;;;16.02;100.00;99211.13;4984065;28;20495;-63
2022/05/07 08:57:56;;;;;;;21.42;16.63;;;;;;;16.20;100.00;99214.00;4997771;28;20084;-64
2022/05/07 09:00:24;;;;;;;23.33;17.42;;;;;;;16.39;100.00;99214.22;4998448;28;20352;-62
2022/05/07 09:02:53;;;;;;;20.40;17.05;;;;;;;16.53;100.00;99209.44;4997585;28;20030;-62
2022/05/07 09:05:21;;;;;;;18.55;16.55;;;;;;;16.48;100.00;99210.47;4997900;28;20129;-61
2022/05/07 09:07:59;;;;;;;20.15;16.08;;;;;;;16.76;100.00;99217.28;4997099;28;20143;-63
2022/05/07 09:10:30;;;;;;;20.10;17.75;;;;;;;16.67;100.00;99211.59;4996607;28;20030;-61
2022/05/07 09:13:00;;;;;;;21.23;16.25;;;;;;;16.67;100.00;99215.03;5000166;28;20068;-62
2022/05/07 09:15:25;;;;;;;21.65;17.38;;;;;;;16.76;100.00;99211.28;4986925;28;20487;-62
2022/05/07 09:17:51;;;;;;;23.20;18.20;;;;;;;17.01;100.00;99217.31;4972777;28;20256;-61
2022/05/07 09:20:21;;;;;;;22.65;18.02;;;;;;;17.02;100.00;99213.78;4974939;28;20030;-61
2022/05/07 09:22:53;;;;;;;21.13;17.40;;;;;;;17.06;100.00;99214.56;4972427;28;20054;-63
2022/05/07 09:25:21;;;;;;;16.70;14.93;;;;;;;17.09;100.00;99215.28;4973004;28;20105;-62
2022/05/07 09:27:47;;;;;;;22.50;17.35;;;;;;;17.22;100.00;99210.50;4974152;28;20034;-61
2022/05/07 09:30:19;;;;;;;17.25;14.75;;;;;;;17.46;100.00;99214.75;4977239;28;20505;-61
2022/05/07 09:32:50;;;;;;;18.15;15.60;;;;;;;17.76;100.00;99211.03;4981529;28;20517;-61
2022/05/07 09:38:02;;;;;;;16.97;14.77;;;;;;;18.17;100.00;99221.53;4976506;28;20084;-62
2022/05/07 09:40:29;;;;;;;17.90;16.00;;;;;;;17.78;100.00;99219.59;4976112;28;20026;-61
2022/05/07 09:42:57;;;;;;;18.67;14.68;;;;;;;17.88;100.00;99217.50;4979777;28;20166;-61
2022/05/07 09:45:27;;;;;;;18.20;15.38;;;;;;;17.92;100.00;99220.81;4977166;28;20049;-61
2022/05/07 09:47:59;;;;;;;18.00;16.10;;;;;;;17.87;100.00;99215.78;4974215;28;20085;-62
2022/05/07 09:58:37;;;;;;;16.98;14.40;;;;;;;18.27;100.00;99212.47;4978083;28;20109;-62
2022/05/07 10:01:20;;;;;;;19.27;16.30;;;;;;;18.32;100.00;99209.69;4969944;28;20470;-65
2022/05/07 10:04:16;;;;;;;17.77;15.80;;;;;;;18.14;100.00;99206.94;4996305;28;20558;-64
2022/05/07 10:07:00;;;;;;;19.00;15.60;;;;;;;18.10;100.00;99205.38;4981774;28;20053;-64
2022/05/07 10:09:50;;;;;;;17.00;14.63;;;;;;;18.13;100.00;99200.03;4984279;28;20038;-63
2022/05/07 10:12:23;;;;;;;17.02;14.63;;;;;;;18.22;100.00;99202.28;4982576;28;20054;-63
2022/05/07 10:14:49;;;;;;;18.05;15.75;;;;;;;18.25;100.00;99196.94;4981062;28;20099;-65
2022/05/07 10:17:15;;;;;;;18.05;15.23;;;;;;;18.40;100.00;99192.88;5000970;28;20448;-62
2022/05/07 10:19:46;;;;;;;19.15;16.15;;;;;;;18.15;100.00;99197.41;5003619;28;20495;-62
2022/05/07 10:22:21;;;;;;;16.88;14.98;;;;;;;18.22;100.00;99185.84;5001354;28;20088;-62
2022/05/07 10:25:00;;;;;;;15.93;14.20;;;;;;;18.22;100.00;99183.25;4998801;28;20364;-62
2022/05/07 10:27:30;;;;;;;15.95;14.25;;;;;;;18.39;100.00;99173.00;5004664;28;20160;-62
2022/05/07 10:30:22;;;;;;;17.52;14.05;;;;;;;18.43;100.00;99171.13;5004305;28;20034;-61
2022/05/07 10:32:55;;;;;;;17.40;15.30;;;;;;;18.52;100.00;99175.94;4997718;28;20148;-63
2022/05/07 10:35:41;;;;;;;16.67;14.93;;;;;;;18.70;100.00;99170.00;5000381;28;20025;-62
2022/05/07 10:38:12;;;;;;;18.08;15.10;;;;;;;18.66;100.00;99161.50;5004007;28;20903;-63
2022/05/07 10:40:52;;;;;;;16.20;13.77;;;;;;;18.69;100.00;99160.50;4986164;28;20462;-63
2022/05/07 10:43:28;;;;;;;14.00;12.45;;;;;;;18.54;100.00;99159.41;5000384;28;20052;-62
2022/05/07 10:46:04;;;;;;;16.13;13.02;;;;;;;18.87;100.00;99151.06;5003140;28;20037;-62
2022/05/07 10:48:56;;;;;;;13.95;12.35;;;;;;;18.85;100.00;99158.06;5004831;28;20096;-62
2022/05/07 10:51:25;;;;;;;13.48;12.10;;;;;;;18.97;100.00;99153.19;5000048;28;20574;-62
2022/05/07 10:53:51;;;;;;;16.10;13.75;;;;;;;18.97;100.00;99157.53;4998828;28;20034;-63
2022/05/07 10:56:21;;;;;;;16.33;13.40;;;;;;;19.18;100.00;99162.63;4985741;28;20030;-63
2022/05/07 10:58:48;;;;;;;15.32;13.73;;;;;;;18.89;100.00;99155.28;5000967;28;20040;-62
2022/05/07 11:01:14;;;;;;;17.15;15.13;;;;;;;18.99;100.00;99153.97;4998165;28;20480;-62
2022/05/07 11:03:39;;;;;;;16.85;14.77;;;;;;;18.93;100.00;99168.97;5000322;28;20030;-62
2022/05/07 11:06:05;;;;;;;16.52;12.88;;;;;;;19.13;100.00;99166.34;5000902;28;20021;-63
2022/05/07 11:08:30;;;;;;;14.82;13.32;;;;;;;19.21;100.00;99156.44;4999056;28;20025;-63
2022/05/07 11:11:04;;;;;;;16.63;13.88;;;;;;;19.47;100.00;99157.88;4997601;28;20072;-63
2022/05/07 11:13:29;;;;;;;15.25;13.43;;;;;;;19.56;100.00;99154.88;4999487;28;20465;-62
2022/05/07 11:16:06;;;;;;;16.30;14.25;;;;;;;19.42;100.00;99154.63;4998818;28;20046;-66
2022/05/07 11:18:34;;;;;;;15.43;13.75;;;;;;;19.37;100.00;99135.78;4999086;28;20057;-62
2022/05/07 11:21:04;;;;;;;21.98;15.60;;;;;;;19.37;100.00;99140.97;4995685;28;20052;-62
2022/05/07 11:23:34;;;;;;;20.70;15.48;;;;;;;19.25;100.00;99144.16;4999354;28;20485;-64
2022/05/07 11:26:11;;;;;;;16.27;14.15;;;;;;;19.51;100.00;99143.81;5001747;28;20441;-63
2022/05/07 11:28:40;;;;;;;16.83;14.82;;;;;;;19.40;100.00;99135.63;4998844;28;20456;-62
2022/05/07 11:31:07;;;;;;;16.25;14.32;;;;;;;19.48;100.00;99136.13;4998004;28;20030;-63
2022/05/07 11:33:33;;;;;;;16.70;13.20;;;;;;;19.49;100.00;99130.88;4998998;28;20025;-63
2022/05/07 11:36:03;;;;;;;15.50;13.82;;;;;;;19.47;100.00;99129.28;4999819;28;20376;-63
2022/05/07 11:38:28;;;;;;;16.65;14.95;;;;;;;18.94;100.00;99124.75;4998491;28;20542;-62
2022/05/07 11:40:54;;;;;;;17.63;14.68;;;;;;;18.82;100.00;99120.09;4998939;28;20032;-61
2022/05/07 11:46:07;;;;;;;17.07;15.27;;;;;;;19.29;100.00;99111.91;4998698;28;20053;-61
2022/05/07 11:48:32;;;;;;;20.48;15.55;;;;;;;19.45;100.00;99110.28;4985917;28;20792;-64